createdAt,value
2022-10-28T00:01:22.000Z,8.77
2022-10-28T00:03:57.086Z,8.72
2022-10-28T00:06:27.387Z,8.73
2022-10-28T00:08:54.505Z,8.84
2022-10-28T00:11:23.847Z,8.85
2022-10-28T00:13:53.316Z,8.77
2022-10-28T00:16:22.296Z,8.73
2022-10-28T00:18:50.248Z,8.63
2022-10-28T00:21:23.599Z,8.54
2022-10-28T00:23:50.488Z,8.46
2022-10-28T00:26:20.379Z,8.44
2022-10-28T00:28:49.330Z,8.47
2022-10-28T00:31:19.199Z,8.54
2022-10-28T00:33:46.250Z,8.67
2022-10-28T00:36:21.045Z,8.73
2022-10-28T00:38:49.387Z,8.81
2022-10-28T00:41:28.441Z,8.81
2022-10-28T00:43:57.646Z,8.78
2022-10-28T00:46:56.554Z,8.78
2022-10-28T00:49:30.327Z,8.80
2022-10-28T00:52:02.369Z,8.82
2022-10-28T00:54:30.775Z,8.73
2022-10-28T00:56:59.790Z,8.82
2022-10-28T00:59:31.750Z,8.82
2022-10-28T01:01:58.818Z,8.82
2022-10-28T01:04:25.812Z,8.81
2022-10-28T01:06:52.940Z,8.74
2022-10-28T01:09:19.588Z,8.61
2022-10-28T01:11:50.253Z,8.56
2022-10-28T01:14:23.480Z,8.54
2022-10-28T01:17:32.998Z,8.59
2022-10-28T01:20:24.037Z,8.61
2022-10-28T01:22:59.779Z,8.48
2022-10-28T01:26:00.570Z,8.43
2022-10-28T01:29:08.527Z,8.35
2022-10-28T01:31:44.075Z,8.29
2022-10-28T01:34:10.656Z,8.32
2022-10-28T01:36:55.652Z,8.29
2022-10-28T01:39:28.401Z,8.25
2022-10-28T01:42:15.187Z,8.16
2022-10-28T01:44:41.697Z,8.13
2022-10-28T01:47:46.568Z,8.13
2022-10-28T01:50:17.250Z,8.13
2022-10-28T01:52:46.673Z,8.12
2022-10-28T01:55:21.864Z,8.12
2022-10-28T01:57:51.402Z,8.07
2022-10-28T02:00:18.276Z,8.05
2022-10-28T02:02:46.962Z,8.04
2022-10-28T02:05:46.250Z,7.98
2022-10-28T02:08:15.919Z,7.94
2022-10-28T02:11:03.288Z,7.88
2022-10-28T02:14:04.384Z,7.87
2022-10-28T02:17:03.521Z,7.85
2022-10-28T02:19:35.976Z,7.86
2022-10-28T02:22:16.283Z,7.85
2022-10-28T02:25:07.093Z,7.86
2022-10-28T02:27:46.729Z,7.90
2022-10-28T02:30:25.752Z,7.91
2022-10-28T02:32:57.762Z,7.91
2022-10-28T02:35:30.559Z,7.96
2022-10-28T02:38:01.602Z,7.97
2022-10-28T02:40:30.631Z,8.01
2022-10-28T02:43:03.502Z,8.03
2022-10-28T02:45:34.656Z,8.02
2022-10-28T02:48:08.996Z,7.97
2022-10-28T02:50:41.456Z,7.95
2022-10-28T02:53:19.584Z,7.90
2022-10-28T02:55:51.439Z,7.86
2022-10-28T02:58:18.501Z,7.83
2022-10-28T03:00:45.957Z,7.81
2022-10-28T03:03:13.241Z,7.77
2022-10-28T03:05:39.881Z,7.74
2022-10-28T03:08:06.780Z,7.74
2022-10-28T03:10:33.400Z,7.75
2022-10-28T03:12:59.958Z,7.96
2022-10-28T03:15:26.503Z,8.01
2022-10-28T03:17:53.272Z,7.96
2022-10-28T03:20:20.037Z,7.89
2022-10-28T03:22:47.217Z,7.80
2022-10-28T03:25:13.830Z,7.73
2022-10-28T03:27:41.477Z,7.67
2022-10-28T03:30:08.483Z,7.66
2022-10-28T03:32:35.054Z,7.55
2022-10-28T03:35:01.596Z,7.48
2022-10-28T03:37:28.139Z,7.38
2022-10-28T03:39:54.720Z,7.33
2022-10-28T03:42:21.348Z,7.32
2022-10-28T03:44:47.887Z,7.29
2022-10-28T03:47:14.451Z,7.28
2022-10-28T03:49:41.063Z,7.27
2022-10-28T03:52:07.575Z,7.27
2022-10-28T03:54:34.133Z,7.29
2022-10-28T03:57:00.674Z,7.28
2022-10-28T03:59:27.245Z,7.35
2022-10-28T04:01:53.912Z,7.41
2022-10-28T04:04:20.602Z,7.45
2022-10-28T04:06:47.141Z,7.49
2022-10-28T04:09:13.702Z,7.48
2022-10-28T04:11:40.249Z,7.47
2022-10-28T04:14:06.798Z,7.41
2022-10-28T04:16:33.348Z,7.30
2022-10-28T04:19:00.092Z,7.20
2022-10-28T04:21:26.689Z,7.15
2022-10-28T04:23:53.241Z,7.16
2022-10-28T04:26:19.822Z,7.26
2022-10-28T04:28:46.398Z,7.28
2022-10-28T04:31:12.956Z,7.27
2022-10-28T04:33:39.527Z,7.28
2022-10-28T04:36:06.451Z,7.26
2022-10-28T04:38:33.009Z,7.24
2022-10-28T04:40:59.770Z,7.23
2022-10-28T04:43:26.335Z,7.24
2022-10-28T04:45:52.893Z,7.18
2022-10-28T04:48:19.535Z,7.16
2022-10-28T04:50:46.120Z,7.16
2022-10-28T04:53:13.273Z,7.14
2022-10-28T04:55:39.862Z,7.12
2022-10-28T04:58:06.634Z,7.10
2022-10-28T05:00:33.175Z,7.08
2022-10-28T05:03:03.438Z,7.04
2022-10-28T05:05:30.100Z,7.00
2022-10-28T05:07:57.036Z,6.99
2022-10-28T05:10:23.909Z,7.01
2022-10-28T05:12:50.529Z,7.06
2022-10-28T05:15:17.160Z,7.11
2022-10-28T05:17:44.801Z,7.16
2022-10-28T05:20:12.964Z,7.15
2022-10-28T05:22:46.083Z,7.07
2022-10-28T05:25:12.727Z,7.03
2022-10-28T05:27:39.276Z,6.98
2022-10-28T05:30:06.606Z,6.96
2022-10-28T05:32:33.134Z,6.93
2022-10-28T05:34:59.670Z,6.92
2022-10-28T05:37:26.229Z,6.95
2022-10-28T05:39:52.779Z,7.00
2022-10-28T05:42:19.354Z,7.00
2022-10-28T05:44:45.941Z,7.03
2022-10-28T05:47:12.503Z,7.10
2022-10-28T05:49:39.037Z,7.15
2022-10-28T05:52:05.619Z,7.18
2022-10-28T05:54:32.202Z,7.11
2022-10-28T05:56:58.788Z,7.08
2022-10-28T05:59:25.408Z,6.98
2022-10-28T06:01:52.022Z,6.96
2022-10-28T06:04:18.774Z,6.97
2022-10-28T06:06:45.379Z,7.00
2022-10-28T06:09:11.933Z,7.06
2022-10-28T06:11:37.008Z,7.19
2022-10-28T06:14:03.637Z,7.30
2022-10-28T06:16:30.196Z,7.43
2022-10-28T06:18:56.901Z,7.44
2022-10-28T06:21:23.541Z,7.41
2022-10-28T06:23:50.584Z,7.40
2022-10-28T06:26:17.168Z,7.48
2022-10-28T06:28:46.075Z,7.58
2022-10-28T06:31:12.618Z,7.65
2022-10-28T06:33:39.165Z,7.68
2022-10-28T06:36:06.077Z,7.76
2022-10-28T06:38:32.647Z,7.78
2022-10-28T06:40:59.292Z,7.80
2022-10-28T06:43:26.127Z,7.78
2022-10-28T06:45:55.417Z,7.76
2022-10-28T06:48:24.457Z,7.80
2022-10-28T06:50:50.989Z,8.02
2022-10-28T06:53:17.584Z,8.23
2022-10-28T06:55:48.727Z,8.38
2022-10-28T06:58:15.523Z,8.54
2022-10-28T07:00:42.125Z,8.75
2022-10-28T07:03:09.876Z,8.87
2022-10-28T07:05:36.637Z,9.00
2022-10-28T07:08:03.254Z,9.08
2022-10-28T07:10:29.797Z,9.20
2022-10-28T07:12:56.966Z,9.34
2022-10-28T07:15:23.818Z,9.47
2022-10-28T07:17:57.390Z,9.66
2022-10-28T07:20:25.387Z,9.81
2022-10-28T07:23:02.269Z,10.06
2022-10-28T07:25:30.548Z,10.29
2022-10-28T07:27:58.739Z,10.50
2022-10-28T07:30:26.327Z,10.75
2022-10-28T07:32:53.234Z,11.03
2022-10-28T07:35:20.270Z,11.28
2022-10-28T07:37:47.285Z,11.65
2022-10-28T07:40:14.262Z,12.01
2022-10-28T07:42:40.839Z,12.40
2022-10-28T07:45:07.797Z,12.75
2022-10-28T07:47:34.722Z,13.14
2022-10-28T07:50:01.280Z,13.48
2022-10-28T07:52:27.983Z,13.74
2022-10-28T07:54:54.555Z,13.95
2022-10-28T07:57:21.155Z,14.11
2022-10-28T07:59:47.733Z,14.24
2022-10-28T08:02:19.823Z,14.35
2022-10-28T08:04:46.441Z,14.41
2022-10-28T08:07:14.377Z,14.46
2022-10-28T08:09:41.626Z,14.41
2022-10-28T08:12:09.322Z,14.32
2022-10-28T08:14:35.888Z,14.18
2022-10-28T08:17:02.604Z,14.08
2022-10-28T08:19:29.519Z,14.00
2022-10-28T08:21:56.675Z,13.93
2022-10-28T08:24:23.774Z,13.84
2022-10-28T08:26:50.796Z,13.84
2022-10-28T08:29:17.361Z,13.84
2022-10-28T08:31:43.955Z,13.97
2022-10-28T08:34:10.984Z,14.11
2022-10-28T08:36:37.659Z,14.13
2022-10-28T08:39:04.374Z,14.18
2022-10-28T08:41:42.722Z,14.43
2022-10-28T08:44:53.966Z,14.68
2022-10-28T08:47:20.498Z,14.95
2022-10-28T08:49:52.498Z,15.20
2022-10-28T08:52:22.110Z,15.52
2022-10-28T08:54:53.633Z,15.71
2022-10-28T08:57:31.858Z,15.94
2022-10-28T08:59:59.966Z,16.09
2022-10-28T09:02:31.822Z,16.17
2022-10-28T09:05:05.871Z,16.09
2022-10-28T09:07:35.986Z,16.17
2022-10-28T09:10:05.425Z,16.34
2022-10-28T09:12:50.895Z,16.65
2022-10-28T09:15:43.834Z,17.35
2022-10-28T09:18:32.974Z,17.81
2022-10-28T09:21:05.214Z,17.89
2022-10-28T09:23:42.630Z,17.99
2022-10-28T09:26:33.716Z,17.86
2022-10-28T09:29:32.030Z,17.44
2022-10-28T09:32:07.354Z,17.56
2022-10-28T09:34:44.443Z,18.70
2022-10-28T09:37:22.717Z,19.31
2022-10-28T09:39:56.220Z,20.00
2022-10-28T09:42:28.936Z,20.74
2022-10-28T09:45:06.448Z,21.18
2022-10-28T09:47:39.622Z,21.21
2022-10-28T09:50:15.730Z,20.58
2022-10-28T09:53:01.028Z,20.48
2022-10-28T09:55:28.895Z,20.94
2022-10-28T09:57:56.575Z,21.98
2022-10-28T10:00:23.445Z,22.45
2022-10-28T10:02:55.095Z,22.75
2022-10-28T10:05:21.721Z,22.50
2022-10-28T10:07:53.405Z,22.37
2022-10-28T10:10:37.876Z,22.74
2022-10-28T10:13:06.292Z,23.17
2022-10-28T10:15:39.869Z,23.08
2022-10-28T10:18:12.462Z,22.99
2022-10-28T10:20:50.937Z,22.39
2022-10-28T10:26:12.822Z,22.75
2022-10-28T10:28:51.574Z,23.09
2022-10-28T10:31:21.080Z,23.48
2022-10-28T10:33:53.214Z,24.21
2022-10-28T10:36:23.832Z,25.52
2022-10-28T10:38:51.839Z,25.36
2022-10-28T10:41:44.079Z,25.91
2022-10-28T10:44:22.638Z,26.67
2022-10-28T10:46:55.320Z,26.15
2022-10-28T10:49:21.916Z,26.43
2022-10-28T10:52:17.377Z,26.56
2022-10-28T10:54:57.754Z,27.30
2022-10-28T10:57:27.119Z,28.17
2022-10-28T10:59:55.505Z,28.72
2022-10-28T11:02:35.027Z,30.01
2022-10-28T11:05:08.410Z,30.16
2022-10-28T11:07:37.841Z,31.01
2022-10-28T11:10:05.303Z,30.99
2022-10-28T11:12:36.959Z,30.42
2022-10-28T11:15:28.495Z,28.80
2022-10-28T11:18:20.742Z,28.28
2022-10-28T11:21:03.296Z,27.15
2022-10-28T11:23:35.555Z,26.34
2022-10-28T11:26:06.309Z,25.99
2022-10-28T11:28:54.540Z,25.47
2022-10-28T11:31:44.802Z,25.09
2022-10-28T11:34:42.258Z,24.97
2022-10-28T11:37:30.691Z,24.84
2022-10-28T11:40:05.315Z,24.70
2022-10-28T11:43:13.216Z,24.69
2022-10-28T11:45:51.212Z,25.16
2022-10-28T11:48:31.023Z,25.31
2022-10-28T11:51:03.695Z,25.54
2022-10-28T11:53:37.192Z,25.89
2022-10-28T11:56:29.177Z,26.63
2022-10-28T11:59:20.610Z,27.60
2022-10-28T12:02:05.607Z,28.23
2022-10-28T12:04:47.509Z,27.84
2022-10-28T12:07:35.250Z,27.93
2022-10-28T12:10:51.226Z,27.33
2022-10-28T12:13:33.079Z,27.02
2022-10-28T12:16:17.475Z,26.42
2022-10-28T12:18:43.999Z,26.10
2022-10-28T12:24:05.260Z,26.64
2022-10-28T12:26:35.027Z,26.38
2022-10-28T12:29:07.150Z,26.58
2022-10-28T12:31:43.103Z,25.95
2022-10-28T12:34:15.715Z,25.28
2022-10-28T12:36:48.058Z,25.59
2022-10-28T12:39:47.833Z,26.30
2022-10-28T12:42:28.960Z,26.35
2022-10-28T12:44:58.666Z,25.83
2022-10-28T12:47:43.193Z,26.71
2022-10-28T12:50:14.574Z,27.07
2022-10-28T12:53:02.006Z,27.04
2022-10-28T12:55:42.638Z,26.07
2022-10-28T12:58:12.154Z,26.03
2022-10-28T13:00:49.299Z,26.14
2022-10-28T13:03:16.524Z,26.01
2022-10-28T13:05:43.019Z,25.53
2022-10-28T13:08:09.597Z,25.22
2022-10-28T13:10:48.278Z,26.19
2022-10-28T13:13:21.615Z,27.85
2022-10-28T13:16:14.206Z,29.55
2022-10-28T13:18:46.836Z,30.86
2022-10-28T13:21:16.036Z,30.16
2022-10-28T13:24:07.506Z,29.53
2022-10-28T13:26:37.293Z,30.53
2022-10-28T13:29:07.388Z,30.55
2022-10-28T13:31:40.890Z,30.95
2022-10-28T13:34:09.516Z,31.17
2022-10-28T13:36:40.966Z,32.00
2022-10-28T13:39:21.928Z,32.48
2022-10-28T13:41:49.031Z,33.01
2022-10-28T13:44:18.843Z,32.68
2022-10-28T13:46:57.302Z,32.87
2022-10-28T13:49:24.347Z,33.63
2022-10-28T13:51:59.075Z,32.64
2022-10-28T13:54:30.458Z,31.60
2022-10-28T13:57:05.093Z,32.06
2022-10-28T13:59:42.134Z,31.79
2022-10-28T14:02:34.414Z,31.14
2022-10-28T14:05:07.318Z,30.65
2022-10-28T14:07:36.382Z,31.10
2022-10-28T14:10:22.747Z,32.17
2022-10-28T14:12:54.944Z,32.26
2022-10-28T14:15:28.806Z,31.85
2022-10-28T14:18:15.838Z,32.00
2022-10-28T14:20:48.610Z,33.26
2022-10-28T14:23:21.288Z,32.78
2022-10-28T14:25:50.870Z,31.59
2022-10-28T14:28:29.691Z,31.02
2022-10-28T14:31:11.615Z,31.41
2022-10-28T14:33:40.962Z,30.85
2022-10-28T14:36:19.534Z,28.29
2022-10-28T14:39:04.458Z,28.21
2022-10-28T14:41:34.373Z,27.89
2022-10-28T14:44:19.188Z,27.78
2022-10-28T14:46:48.771Z,28.16
2022-10-28T14:49:27.461Z,27.25
2022-10-28T14:51:54.889Z,26.44
2022-10-28T14:54:48.259Z,25.25
2022-10-28T14:57:16.578Z,24.51
2022-10-28T14:59:45.013Z,23.73
2022-10-28T15:02:20.699Z,23.07
2022-10-28T15:04:57.584Z,22.84
2022-10-28T15:07:24.473Z,22.56
2022-10-28T15:09:53.528Z,22.26
2022-10-28T15:12:22.698Z,22.02
2022-10-28T15:14:52.191Z,22.09
2022-10-28T15:17:20.273Z,22.10
2022-10-28T15:19:49.871Z,21.80
2022-10-28T15:22:26.637Z,21.43
2022-10-28T15:25:10.650Z,20.87
2022-10-28T15:27:39.745Z,20.80
2022-10-28T15:30:20.691Z,20.76
2022-10-28T15:32:47.243Z,20.28
2022-10-28T15:35:32.790Z,19.73
2022-10-28T15:38:01.599Z,19.40
2022-10-28T15:40:33.270Z,19.04
2022-10-28T15:43:16.947Z,18.75
2022-10-28T15:45:43.598Z,18.56
2022-10-28T15:48:13.468Z,18.56
2022-10-28T15:50:40.481Z,18.26
2022-10-28T15:53:07.030Z,18.37
2022-10-28T15:55:41.500Z,18.26
2022-10-28T15:58:37.875Z,18.25
2022-10-28T16:01:09.531Z,18.11
2022-10-28T16:03:47.081Z,17.98
2022-10-28T16:06:40.042Z,18.01
2022-10-28T16:09:39.904Z,17.72
2022-10-28T16:12:17.232Z,17.42
2022-10-28T16:14:46.969Z,17.34
2022-10-28T16:17:23.823Z,17.23
2022-10-28T16:20:00.212Z,17.11
2022-10-28T16:22:28.879Z,16.97
2022-10-28T16:24:55.859Z,16.78
2022-10-28T16:27:25.589Z,16.67
2022-10-28T16:29:52.646Z,16.56
2022-10-28T16:32:56.818Z,16.50
2022-10-28T16:35:24.344Z,16.38
2022-10-28T16:37:55.126Z,16.45
2022-10-28T16:40:50.917Z,16.41
2022-10-28T16:43:19.880Z,16.39
2022-10-28T16:45:51.009Z,16.24
2022-10-28T16:48:19.437Z,15.70
2022-10-28T16:50:54.458Z,15.41
2022-10-28T16:53:22.277Z,15.40
2022-10-28T16:55:49.133Z,15.48
2022-10-28T16:58:15.912Z,15.49
2022-10-28T17:00:43.572Z,15.44
2022-10-28T17:03:17.297Z,15.22
2022-10-28T17:05:44.042Z,15.15
2022-10-28T17:08:11.686Z,15.12
2022-10-28T17:10:42.635Z,15.03
2022-10-28T17:13:12.765Z,14.99
2022-10-28T17:15:40.338Z,14.91
2022-10-28T17:18:07.478Z,14.95
2022-10-28T17:20:34.046Z,15.04
2022-10-28T17:23:00.639Z,15.10
2022-10-28T17:25:27.971Z,15.14
2022-10-28T17:27:55.046Z,15.23
2022-10-28T17:30:21.980Z,15.26
2022-10-28T17:32:53.504Z,15.16
2022-10-28T17:35:22.421Z,15.13
2022-10-28T17:37:49.186Z,15.05
2022-10-28T17:40:16.218Z,14.91
2022-10-28T17:42:42.814Z,14.79
2022-10-28T17:45:10.508Z,14.59
2022-10-28T17:47:37.086Z,14.43
2022-10-28T17:50:04.118Z,14.30
2022-10-28T17:52:35.602Z,14.23
2022-10-28T17:55:05.430Z,14.17
2022-10-28T17:57:31.969Z,14.03
2022-10-28T17:59:58.524Z,13.96
2022-10-28T18:02:25.326Z,13.97
2022-10-28T18:04:52.166Z,13.88
2022-10-28T18:07:18.905Z,13.90
2022-10-28T18:09:45.475Z,13.86
2022-10-28T18:12:12.646Z,13.98
2022-10-28T18:14:39.528Z,14.00
2022-10-28T18:17:06.199Z,13.84
2022-10-28T18:19:32.773Z,13.80
2022-10-28T18:21:59.349Z,13.77
2022-10-28T18:24:26.278Z,13.71
2022-10-28T18:26:54.781Z,13.70
2022-10-28T18:29:24.761Z,13.72
2022-10-28T18:31:51.723Z,13.68
2022-10-28T18:34:18.632Z,13.68
2022-10-28T18:36:45.273Z,13.67
2022-10-28T18:39:11.868Z,13.71
2022-10-28T18:41:41.907Z,13.85
2022-10-28T18:44:14.138Z,13.78
2022-10-28T18:46:41.077Z,13.55
2022-10-28T18:49:07.693Z,13.51
2022-10-28T18:51:34.400Z,13.55
2022-10-28T18:54:01.512Z,13.65
2022-10-28T18:56:34.065Z,13.75
2022-10-28T18:59:03.419Z,13.84
2022-10-28T19:01:31.698Z,13.95
2022-10-28T19:04:03.168Z,13.94
2022-10-28T19:06:32.512Z,13.95
2022-10-28T19:09:04.483Z,14.04
2022-10-28T19:11:32.131Z,14.08
2022-10-28T19:14:00.895Z,14.05
2022-10-28T19:16:35.298Z,14.03
2022-10-28T19:19:04.448Z,13.97
2022-10-28T19:21:31.773Z,13.93
2022-10-28T19:23:58.652Z,13.90
2022-10-28T19:26:25.297Z,13.85
2022-10-28T19:28:52.047Z,13.82
2022-10-28T19:31:21.553Z,13.53
2022-10-28T19:33:48.483Z,13.44
2022-10-28T19:36:21.264Z,13.44
2022-10-28T19:38:49.540Z,13.47
2022-10-28T19:41:19.125Z,13.66
2022-10-28T19:43:46.440Z,13.66
2022-10-28T19:46:18.766Z,13.77
2022-10-28T19:48:47.607Z,13.75
2022-10-28T19:51:16.737Z,13.76
2022-10-28T19:53:53.600Z,13.56
2022-10-28T19:56:20.826Z,13.55
2022-10-28T19:58:51.594Z,13.54
2022-10-28T20:01:19.466Z,13.57
2022-10-28T20:03:49.155Z,13.60
2022-10-28T20:06:17.924Z,13.67
2022-10-28T20:08:49.306Z,13.72
2022-10-28T20:11:20.079Z,13.77
2022-10-28T20:14:01.558Z,13.91
2022-10-28T20:16:28.975Z,13.98
2022-10-28T20:18:56.767Z,13.97
2022-10-28T20:21:25.512Z,13.90
2022-10-28T20:23:54.041Z,13.85
2022-10-28T20:26:23.057Z,13.78
2022-10-28T20:28:50.792Z,13.76
2022-10-28T20:31:22.597Z,13.75
2022-10-28T20:33:58.641Z,13.76
2022-10-28T20:36:49.643Z,13.79
2022-10-28T20:39:19.192Z,13.83
2022-10-28T20:41:47.649Z,13.83
2022-10-28T20:44:14.383Z,13.81
2022-10-28T20:46:41.776Z,13.82
2022-10-28T20:49:12.093Z,13.75
2022-10-28T20:51:38.769Z,13.74
2022-10-28T20:54:06.285Z,13.75
2022-10-28T20:56:36.224Z,13.70
2022-10-28T20:59:03.754Z,13.67
2022-10-28T21:01:33.504Z,13.60
2022-10-28T21:04:02.680Z,13.59
2022-10-28T21:06:30.533Z,13.50
2022-10-28T21:08:57.322Z,13.40
2022-10-28T21:11:24.815Z,13.45
2022-10-28T21:13:53.323Z,13.41
2022-10-28T21:16:20.989Z,13.37
2022-10-28T21:18:47.930Z,13.33
2022-10-28T21:21:14.813Z,13.27
2022-10-28T21:23:41.474Z,13.13
2022-10-28T21:26:11.294Z,13.11
2022-10-28T21:28:37.965Z,13.08
2022-10-28T21:31:10.361Z,13.05
2022-10-28T21:33:37.985Z,13.06
2022-10-28T21:36:11.209Z,13.04
2022-10-28T21:38:38.267Z,13.00
2022-10-28T21:41:25.136Z,12.93
2022-10-28T21:43:52.954Z,12.85
2022-10-28T21:46:21.078Z,12.62
2022-10-28T21:48:47.997Z,12.52
2022-10-28T21:51:16.426Z,12.38
2022-10-28T21:53:44.289Z,12.36
2022-10-28T21:56:16.994Z,12.35
2022-10-28T21:58:45.188Z,12.39
2022-10-28T22:01:17.851Z,12.41
2022-10-28T22:03:44.521Z,12.36
2022-10-28T22:06:11.175Z,12.28
2022-10-28T22:08:37.722Z,12.17
2022-10-28T22:11:16.639Z,12.06
2022-10-28T22:13:43.991Z,12.08
2022-10-28T22:16:17.296Z,12.07
2022-10-28T22:18:44.997Z,12.00
2022-10-28T22:21:11.841Z,11.88
2022-10-28T22:23:39.270Z,11.76
2022-10-28T22:26:08.436Z,11.65
2022-10-28T22:28:35.076Z,11.53
2022-10-28T22:31:07.424Z,11.39
2022-10-28T22:33:34.649Z,11.25
2022-10-28T22:36:06.910Z,11.14
2022-10-28T22:38:33.531Z,11.07
2022-10-28T22:41:03.148Z,11.11
2022-10-28T22:43:29.802Z,10.99
2022-10-28T22:45:58.550Z,10.94
2022-10-28T22:48:25.746Z,10.95
2022-10-28T22:50:53.222Z,10.94
2022-10-28T22:53:20.243Z,10.93
2022-10-28T22:55:47.382Z,10.91
2022-10-28T22:58:15.172Z,10.87
2022-10-28T23:00:41.938Z,10.84
2022-10-28T23:03:08.792Z,10.86
2022-10-28T23:05:35.400Z,10.88
2022-10-28T23:08:01.920Z,10.75
2022-10-28T23:10:28.953Z,10.69
2022-10-28T23:12:59.753Z,10.74
2022-10-28T23:15:27.467Z,10.70
2022-10-28T23:17:54.320Z,10.73
2022-10-28T23:20:22.788Z,10.76
2022-10-28T23:22:49.572Z,10.72
2022-10-28T23:25:16.652Z,10.70
2022-10-28T23:27:44.403Z,10.71
2022-10-28T23:30:12.866Z,10.68
2022-10-28T23:32:39.827Z,10.70
2022-10-28T23:35:07.277Z,10.70
2022-10-28T23:37:34.070Z,10.66
2022-10-28T23:40:00.718Z,10.62
2022-10-28T23:42:27.375Z,10.59
2022-10-28T23:44:53.919Z,10.55
2022-10-28T23:47:20.485Z,10.56
2022-10-28T23:49:47.022Z,10.61
2022-10-28T23:52:13.766Z,10.62
2022-10-28T23:54:40.295Z,10.58
2022-10-28T23:57:08.339Z,10.52
2022-10-28T23:59:35.072Z,10.42
